Terminal Aerodrome Forecast
Issued by NWS

Home | Current Version | Previous Version | Text Only | Print | Product List | Glossary On
Versions: 1 2 3 4 5 6 7 8 9 10 11 12 13
000
FTUS45 KRIW 050538
TAFRKS
TAF
KRKS 050538Z 0506/0606 19012G18KT P6SM VCTS FEW080CB SCT100
     FM050700 18010KT P6SM SCT110
     FM051700 21020G32KT P6SM SCT070
     FM052000 24024G35KT P6SM VCTS SCT070CB BKN100
     FM060100 28020G30KT P6SM VCSH BKN070
     FM060500 25009KT P6SM FEW080=

USA.gov is the U.S. government's official web portal to all federal, state and local government web resources and services.